Time;durP1;ratioP1;P1;durP2;ratioP2;P2;SDS_P1;SDS_P2;PMS_P1;PMS_P2;Temp;Humidity;BMP_temperature;BMP_pressure;BME280_temperature;BME280_humidity;BME280_pressure;Samples;Min_cycle;Max_cycle;Signal;HPM_P1;HPM_P2
2023/04/06 00:00:36;;;;;;;5.77;3.90;;;;;;;3.35;100.00;99309.69;5090547;28;20195;-79
2023/04/06 00:03:04;;;;;;;7.07;4.00;;;;;;;3.17;100.00;99312.88;5089363;28;20252;-79
2023/04/06 00:05:33;;;;;;;6.23;3.90;;;;;;;2.97;100.00;99308.28;5084472;28;20248;-79
2023/04/06 00:08:01;;;;;;;6.20;4.20;;;;;;;3.13;100.00;99311.28;5090026;28;20196;-79
2023/04/06 00:10:30;;;;;;;5.00;4.20;;;;;;;3.40;100.00;99301.69;5089236;28;20203;-79
2023/04/06 00:13:00;;;;;;;6.73;4.17;;;;;;;3.57;100.00;99307.25;5083304;28;20199;-79
2023/04/06 00:15:28;;;;;;;7.80;4.63;;;;;;;3.63;100.00;99300.94;5093166;28;20799;-79
2023/04/06 00:17:57;;;;;;;7.40;4.00;;;;;;;3.64;100.00;99302.63;5090290;28;20278;-79
2023/04/06 00:20:25;;;;;;;6.50;4.17;;;;;;;3.47;100.00;99302.31;5088634;28;20191;-79
2023/04/06 00:22:53;;;;;;;7.63;4.90;;;;;;;3.56;100.00;99284.56;5088475;28;20226;-79
2023/04/06 00:25:22;;;;;;;11.00;6.63;;;;;;;3.22;100.00;99290.06;5087495;28;20245;-79
2023/04/06 00:27:50;;;;;;;7.73;5.03;;;;;;;3.23;100.00;99285.69;5086773;28;20203;-79
2023/04/06 00:30:20;;;;;;;7.90;4.80;;;;;;;3.30;100.00;99289.81;5084984;28;20249;-79
2023/04/06 00:32:49;;;;;;;15.40;7.00;;;;;;;3.17;100.00;99278.84;5089631;28;20184;-78
2023/04/06 00:35:17;;;;;;;16.60;11.70;;;;;;;2.98;100.00;99285.59;5084409;28;20203;-79
2023/04/06 00:37:47;;;;;;;123.83;67.73;;;;;;;3.18;100.00;99283.19;5050255;28;20242;-79
2023/04/06 00:40:16;;;;;;;32.87;21.23;;;;;;;3.17;100.00;99286.72;5044939;28;20213;-79
2023/04/06 00:42:45;;;;;;;11.57;8.33;;;;;;;3.06;100.00;99280.97;5044956;28;20195;-79
2023/04/06 00:45:13;;;;;;;9.23;6.03;;;;;;;3.00;100.00;99278.56;5050018;28;20288;-79
2023/04/06 00:47:43;;;;;;;7.47;5.30;;;;;;;2.82;100.00;99277.38;5043430;28;20201;-79
2023/04/06 00:50:11;;;;;;;6.87;5.13;;;;;;;2.72;100.00;99274.19;5042458;28;20196;-79
2023/04/06 00:52:40;;;;;;;7.43;5.60;;;;;;;2.54;100.00;99275.59;5038730;28;20254;-79
2023/04/06 00:55:09;;;;;;;9.83;6.17;;;;;;;2.49;100.00;99267.00;5052970;28;20211;-78
2023/04/06 00:57:37;;;;;;;6.83;5.20;;;;;;;2.45;100.00;99264.53;5089371;28;20261;-79
2023/04/06 01:00:06;;;;;;;7.57;4.77;;;;;;;2.47;100.00;99266.19;5087065;28;20220;-79
2023/04/06 01:02:35;;;;;;;8.07;5.10;;;;;;;2.67;100.00;99265.59;5065603;28;20281;-78
2023/04/06 01:05:06;;;;;;;6.87;4.67;;;;;;;2.49;100.00;99261.78;5070856;28;20675;-78
2023/04/06 01:07:34;;;;;;;4.77;3.90;;;;;;;2.56;100.00;99265.06;5068549;28;20196;-79
2023/04/06 01:10:02;;;;;;;7.23;4.70;;;;;;;2.54;100.00;99257.28;5061580;28;20204;-79
2023/04/06 01:12:30;;;;;;;7.23;4.50;;;;;;;2.41;100.00;99249.84;5065923;28;20204;-78
2023/04/06 01:14:59;;;;;;;7.23;4.97;;;;;;;2.59;100.00;99257.97;5070629;28;20216;-79
2023/04/06 01:17:28;;;;;;;7.00;4.90;;;;;;;2.45;100.00;99254.94;5069296;28;20260;-79
2023/04/06 01:19:56;;;;;;;7.43;4.90;;;;;;;2.36;100.00;99255.22;5070710;28;20212;-79
2023/04/06 01:22:26;;;;;;;5.73;4.33;;;;;;;2.52;100.00;99251.25;5066520;28;20201;-79
2023/04/06 01:24:55;;;;;;;6.10;4.60;;;;;;;2.53;100.00;99250.34;5071571;28;20200;-79
2023/04/06 01:27:25;;;;;;;6.73;4.43;;;;;;;2.54;100.00;99246.81;5071802;28;20200;-78
2023/04/06 01:29:53;;;;;;;7.63;4.40;;;;;;;2.33;100.00;99244.84;5069331;28;20228;-79
2023/04/06 01:32:22;;;;;;;9.87;4.50;;;;;;;2.47;100.00;99239.22;5066162;28;20230;-79
2023/04/06 01:34:50;;;;;;;5.60;4.30;;;;;;;2.23;100.00;99246.88;5067677;28;20196;-78
2023/04/06 01:37:18;;;;;;;6.30;4.73;;;;;;;2.14;100.00;99243.69;5065813;28;20697;-79
2023/04/06 01:39:48;;;;;;;6.57;4.63;;;;;;;2.03;100.00;99236.16;5071967;28;20683;-78
2023/04/06 01:42:16;;;;;;;5.07;3.87;;;;;;;2.13;100.00;99234.13;5071720;28;20204;-79
2023/04/06 01:44:44;;;;;;;5.70;4.20;;;;;;;2.08;100.00;99236.84;5059562;28;20270;-79
2023/04/06 01:47:13;;;;;;;5.93;4.53;;;;;;;1.90;100.00;99235.63;5072407;28;20192;-78
2023/04/06 01:49:41;;;;;;;7.67;4.27;;;;;;;2.00;100.00;99247.50;5074433;28;20242;-79
2023/04/06 01:52:09;;;;;;;6.47;4.40;;;;;;;1.96;100.00;99229.38;5022292;28;20197;-79
2023/04/06 01:54:37;;;;;;;6.37;4.20;;;;;;;2.18;100.00;99230.47;5075303;28;20197;-78
2023/04/06 01:57:08;;;;;;;6.87;4.30;;;;;;;2.07;100.00;99240.38;5071538;28;20199;-78
2023/04/06 01:59:36;;;;;;;8.77;4.50;;;;;;;1.88;100.00;99234.81;5070734;28;20216;-79
2023/04/06 02:02:04;;;;;;;7.47;4.40;;;;;;;1.96;100.00;99234.59;5085338;28;20223;-78
2023/04/06 02:04:33;;;;;;;5.50;4.20;;;;;;;1.86;100.00;99244.44;5093793;28;20199;-78
2023/04/06 02:07:01;;;;;;;5.83;4.43;;;;;;;1.75;100.00;99233.44;5091211;28;20248;-79
2023/04/06 02:09:29;;;;;;;7.00;4.13;;;;;;;1.82;100.00;99234.97;5092583;28;20222;-78
2023/04/06 02:11:57;;;;;;;7.87;4.20;;;;;;;2.14;100.00;99226.25;5091228;28;20199;-79
2023/04/06 02:14:28;;;;;;;7.53;4.47;;;;;;;2.11;100.00;99234.16;5088810;28;20200;-79
2023/04/06 02:16:56;;;;;;;8.37;5.00;;;;;;;1.87;100.00;99227.88;5091975;28;20204;-78
2023/04/06 02:19:25;;;;;;;9.70;5.40;;;;;;;1.89;100.00;99231.28;5085949;28;20224;-79
2023/04/06 02:21:53;;;;;;;9.17;4.67;;;;;;;2.03;100.00;99232.66;5091269;28;20237;-79
2023/04/06 02:24:21;;;;;;;6.93;4.40;;;;;;;1.96;100.00;99232.00;5089476;28;20246;-78
2023/04/06 02:26:50;;;;;;;6.67;4.30;;;;;;;1.89;100.00;99226.06;5094941;28;20253;-78
2023/04/06 02:29:18;;;;;;;7.17;4.90;;;;;;;2.14;100.00;99222.78;5094990;28;20196;-79
2023/04/06 02:31:47;;;;;;;6.50;4.47;;;;;;;2.07;100.00;99222.09;5094785;28;20274;-78
2023/04/06 02:34:17;;;;;;;7.07;4.37;;;;;;;1.99;100.00;99219.69;5091783;28;20223;-78
2023/04/06 02:36:46;;;;;;;7.33;4.83;;;;;;;2.05;100.00;99221.28;5093651;28;20188;-78
2023/04/06 02:39:15;;;;;;;5.33;4.20;;;;;;;2.07;100.00;99210.78;5086589;28;20226;-78
2023/04/06 02:41:44;;;;;;;9.70;4.70;;;;;;;2.08;100.00;99215.09;5093542;28;20188;-79
2023/04/06 02:44:12;;;;;;;11.00;4.77;;;;;;;1.91;100.00;99215.56;5088129;28;20265;-78
2023/04/06 02:46:41;;;;;;;9.40;4.40;;;;;;;1.97;100.00;99210.19;5057060;28;20188;-79
2023/04/06 02:49:10;;;;;;;5.33;4.10;;;;;;;1.86;100.00;99214.88;5088922;28;20264;-78
2023/04/06 02:51:39;;;;;;;8.90;4.57;;;;;;;1.80;100.00;99215.03;5088859;28;20643;-79
2023/04/06 02:54:07;;;;;;;7.63;4.43;;;;;;;1.72;100.00;99210.00;5091691;28;20200;-79
2023/04/06 02:56:36;;;;;;;6.10;4.20;;;;;;;1.77;100.00;99210.75;5087861;28;20249;-78
2023/04/06 02:59:04;;;;;;;6.90;4.70;;;;;;;1.82;100.00;99210.59;5086360;28;20221;-78
2023/04/06 03:01:32;;;;;;;5.67;4.33;;;;;;;1.83;100.00;99213.16;5093999;28;20223;-79
2023/04/06 03:04:00;;;;;;;8.13;4.30;;;;;;;1.80;100.00;99213.25;5087606;28;20195;-79
2023/04/06 03:06:30;;;;;;;9.40;4.43;;;;;;;1.71;100.00;99209.16;5041634;28;20196;-78
2023/04/06 03:08:58;;;;;;;6.77;4.37;;;;;;;1.73;100.00;99211.72;5091380;28;20256;-79
2023/04/06 03:11:26;;;;;;;6.23;4.90;;;;;;;1.82;100.00;99208.00;5091512;28;20208;-79
2023/04/06 03:13:54;;;;;;;7.93;4.87;;;;;;;1.79;100.00;99206.34;5095557;28;20233;-78
2023/04/06 03:16:23;;;;;;;7.23;4.93;;;;;;;1.87;100.00;99206.97;5091534;28;20715;-78
2023/04/06 03:18:51;;;;;;;5.57;4.60;;;;;;;1.99;100.00;99208.38;5089821;28;20225;-78
2023/04/06 03:21:20;;;;;;;7.93;4.93;;;;;;;1.94;100.00;99205.06;5089726;28;20227;-79
2023/04/06 03:23:50;;;;;;;6.90;4.73;;;;;;;1.87;100.00;99206.97;5090019;28;20253;-78
2023/04/06 03:26:19;;;;;;;6.97;4.40;;;;;;;1.95;100.00;99199.78;5090825;28;20199;-78
2023/04/06 03:28:47;;;;;;;8.40;4.63;;;;;;;1.96;100.00;99213.69;5087959;28;20195;-78
2023/04/06 03:31:15;;;;;;;8.03;4.93;;;;;;;1.77;100.00;99205.53;5086490;28;20225;-78
2023/04/06 03:33:45;;;;;;;7.57;4.50;;;;;;;1.57;100.00;99211.28;5087270;28;20256;-78
2023/04/06 03:36:13;;;;;;;6.07;4.57;;;;;;;1.64;100.00;99210.25;5092514;28;20203;-78
2023/04/06 03:38:41;;;;;;;9.13;4.87;;;;;;;1.65;100.00;99213.69;5089415;28;20276;-78
2023/04/06 03:41:11;;;;;;;10.87;5.30;;;;;;;1.89;100.00;99205.19;5089307;28;20216;-78
2023/04/06 03:43:39;;;;;;;8.37;5.00;;;;;;;1.92;100.00;99212.91;5093333;28;20200;-78
2023/04/06 03:46:07;;;;;;;10.83;5.10;;;;;;;1.86;100.00;99210.50;5086842;28;20222;-78
2023/04/06 03:48:36;;;;;;;6.23;4.77;;;;;;;1.76;100.00;99216.03;5088721;28;20279;-78
2023/04/06 03:51:06;;;;;;;8.40;5.20;;;;;;;1.72;100.00;99213.47;5088411;28;20196;-78
2023/04/06 03:53:36;;;;;;;6.07;4.27;;;;;;;1.54;100.00;99218.31;5087297;28;20188;-78
2023/04/06 03:56:06;;;;;;;7.50;4.63;;;;;;;1.43;100.00;99214.25;5090586;28;20204;-78
2023/04/06 03:58:36;;;;;;;6.30;4.37;;;;;;;1.30;100.00;99220.69;5087812;28;20192;-79
2023/04/06 04:01:04;;;;;;;6.27;4.83;;;;;;;1.43;100.00;99218.59;5083967;28;20284;-78
2023/04/06 04:03:34;;;;;;;5.77;4.33;;;;;;;1.43;100.00;99222.06;5088997;28;20192;-78
2023/04/06 04:06:03;;;;;;;6.70;4.40;;;;;;;1.40;100.00;99224.78;5084839;28;20196;-78
2023/04/06 04:08:31;;;;;;;6.17;4.70;;;;;;;1.35;100.00;99215.34;5080861;28;20249;-78
2023/04/06 04:10:59;;;;;;;5.53;4.03;;;;;;;1.53;100.00;99222.69;5090239;28;20187;-78
2023/04/06 04:13:27;;;;;;;7.40;5.17;;;;;;;1.48;100.00;99221.97;5083135;28;20253;-78
2023/04/06 04:15:58;;;;;;;8.60;4.80;;;;;;;1.52;100.00;99230.56;5037748;28;20245;-78
2023/04/06 04:18:27;;;;;;;8.57;4.47;;;;;;;1.36;100.00;99224.91;5092907;28;20204;-78
2023/04/06 04:20:55;;;;;;;7.20;4.70;;;;;;;1.41;100.00;99225.63;5085574;28;20659;-78
2023/04/06 04:23:23;;;;;;;7.13;4.80;;;;;;;1.31;100.00;99229.38;5086214;28;20241;-78
2023/04/06 04:25:52;;;;;;;7.43;5.03;;;;;;;1.40;100.00;99230.00;5079671;28;20367;-78
2023/04/06 04:28:20;;;;;;;7.80;5.40;;;;;;;1.44;100.00;99236.84;5081023;28;20196;-78
2023/04/06 04:30:48;;;;;;;11.43;6.17;;;;;;;1.37;100.00;99235.31;5083357;28;20192;-79
2023/04/06 04:33:18;;;;;;;12.63;7.07;;;;;;;1.31;100.00;99232.84;5089797;28;20261;-79
2023/04/06 04:35:47;;;;;;;7.90;5.83;;;;;;;1.19;100.00;99246.19;5088611;28;20261;-79
2023/04/06 04:38:15;;;;;;;8.30;5.70;;;;;;;1.49;100.00;99241.09;5085905;28;20199;-78
2023/04/06 04:40:44;;;;;;;8.13;6.00;;;;;;;1.51;100.00;99234.94;5084753;28;20257;-78
2023/04/06 04:43:12;;;;;;;7.53;5.40;;;;;;;1.83;100.00;99233.19;5087108;28;20278;-79
2023/04/06 04:45:40;;;;;;;8.03;5.20;;;;;;;1.91;100.00;99229.47;5085876;28;20245;-79
2023/04/06 04:48:11;;;;;;;8.30;5.63;;;;;;;1.91;100.00;99229.47;5089701;28;20199;-79
2023/04/06 04:50:41;;;;;;;10.73;5.97;;;;;;;2.03;100.00;99238.75;5083187;28;20203;-78
2023/04/06 04:53:09;;;;;;;7.57;5.37;;;;;;;1.97;100.00;99237.16;5087254;28;20195;-79
2023/04/06 04:55:38;;;;;;;10.43;5.40;;;;;;;1.48;100.00;99239.38;5092210;28;20241;-79
2023/04/06 04:58:06;;;;;;;9.53;5.73;;;;;;;1.61;100.00;99228.56;5089370;28;20200;-79
2023/04/06 05:00:34;;;;;;;10.63;5.63;;;;;;;1.58;100.00;99235.63;5086834;28;20196;-79
2023/04/06 05:03:04;;;;;;;7.00;5.27;;;;;;;1.47;100.00;99238.53;5085920;28;20264;-79
2023/04/06 05:05:34;;;;;;;9.43;5.30;;;;;;;1.36;100.00;99233.59;5081937;28;20188;-79
2023/04/06 05:08:04;;;;;;;10.50;4.70;;;;;;;1.15;100.00;99244.53;5085211;28;20200;-79
2023/04/06 05:10:34;;;;;;;8.27;5.47;;;;;;;1.28;100.00;99250.34;5050545;28;20207;-78
2023/04/06 05:13:02;;;;;;;11.93;6.97;;;;;;;1.43;100.00;99245.56;5082575;28;20200;-79
2023/04/06 05:15:30;;;;;;;12.30;6.00;;;;;;;1.67;100.00;99248.44;5084937;28;20207;-79
2023/04/06 05:17:59;;;;;;;13.07;6.97;;;;;;;1.83;100.00;99256.69;5092231;28;20203;-79
2023/04/06 05:20:27;;;;;;;12.27;6.13;;;;;;;1.85;100.00;99245.34;5092066;28;20192;-79
2023/04/06 05:22:56;;;;;;;9.83;6.47;;;;;;;1.73;100.00;99243.03;5096156;28;20219;-79
2023/04/06 05:25:26;;;;;;;14.97;6.13;;;;;;;1.67;100.00;99246.69;5095994;28;20244;-78
2023/04/06 05:27:55;;;;;;;10.93;6.13;;;;;;;1.48;100.00;99245.47;5093133;28;20199;-79
2023/04/06 05:30:24;;;;;;;10.53;5.57;;;;;;;1.42;100.00;99245.59;5086449;28;20631;-79
2023/04/06 05:32:52;;;;;;;15.53;8.10;;;;;;;1.52;100.00;99243.63;5086011;28;20191;-79
2023/04/06 05:35:20;;;;;;;12.73;8.17;;;;;;;1.42;100.00;99243.84;5094728;28;20196;-79
2023/04/06 05:37:49;;;;;;;10.63;6.60;;;;;;;1.64;100.00;99241.56;5090628;28;20210;-79
2023/04/06 05:40:17;;;;;;;15.83;6.47;;;;;;;1.81;100.00;99238.47;5037548;28;20211;-78
2023/04/06 05:42:47;;;;;;;13.03;7.83;;;;;;;1.72;100.00;99251.78;5092667;28;20224;-78
2023/04/06 05:45:16;;;;;;;12.63;7.67;;;;;;;1.68;100.00;99251.00;5092484;28;20245;-79
2023/04/06 05:47:45;;;;;;;12.83;8.13;;;;;;;1.68;100.00;99251.00;5090299;28;20729;-79
2023/04/06 05:50:14;;;;;;;15.23;9.23;;;;;;;1.66;100.00;99254.56;5094559;28;20611;-78
2023/04/06 05:52:46;;;;;;;18.03;8.97;;;;;;;1.76;100.00;99257.78;5092575;28;20223;-78
2023/04/06 05:55:14;;;;;;;13.17;8.57;;;;;;;1.80;100.00;99254.19;5095556;28;20203;-79
2023/04/06 05:57:42;;;;;;;21.23;9.20;;;;;;;1.83;100.00;99261.94;5092783;28;20257;-79
2023/04/06 06:00:17;;;;;;;14.97;8.53;;;;;;;1.92;100.00;99251.22;5092700;28;20196;-79
2023/04/06 06:02:45;;;;;;;15.37;8.70;;;;;;;2.16;100.00;99253.16;5095225;28;20223;-79
2023/04/06 06:05:14;;;;;;;12.83;8.57;;;;;;;2.18;100.00;99251.38;5088058;28;20239;-79
2023/04/06 06:07:42;;;;;;;16.80;7.93;;;;;;;2.14;100.00;99252.38;5087956;28;20218;-79
2023/04/06 06:10:11;;;;;;;8.97;6.80;;;;;;;2.12;100.00;99256.75;5091690;28;20199;-79
2023/04/06 06:12:40;;;;;;;12.47;7.40;;;;;;;2.26;100.00;99253.75;5095152;28;20218;-79
2023/04/06 06:15:09;;;;;;;14.33;7.20;;;;;;;2.40;100.00;99253.34;5089646;28;20249;-79
2023/04/06 06:17:40;;;;;;;9.87;7.13;;;;;;;2.21;100.00;99248.66;5088541;28;20268;-79
2023/04/06 06:20:09;;;;;;;8.03;6.23;;;;;;;2.50;100.00;99252.19;5086217;28;20249;-79
2023/04/06 06:22:37;;;;;;;7.73;6.03;;;;;;;2.60;100.00;99253.63;4978930;28;20222;-78
2023/04/06 06:25:07;;;;;;;10.03;6.17;;;;;;;2.65;100.00;99254.34;5027392;28;20247;-79
2023/04/06 06:27:35;;;;;;;8.80;6.50;;;;;;;2.82;100.00;99246.84;5028969;28;20202;-79
2023/04/06 06:30:04;;;;;;;11.20;6.73;;;;;;;2.83;100.00;99247.69;5032455;28;20602;-79
2023/04/06 06:32:33;;;;;;;8.37;7.00;;;;;;;2.85;100.00;99248.50;5029276;28;20194;-79
2023/04/06 06:35:03;;;;;;;13.83;7.23;;;;;;;3.04;100.00;99247.00;5022651;28;20190;-79
2023/04/06 06:37:32;;;;;;;10.97;7.37;;;;;;;3.07;100.00;99252.13;5027402;28;20256;-79
2023/04/06 06:40:01;;;;;;;14.03;7.83;;;;;;;3.19;100.00;99252.66;5025265;28;20205;-79
2023/04/06 06:42:29;;;;;;;11.33;7.40;;;;;;;3.34;100.00;99253.00;5029542;28;20214;-79
2023/04/06 06:44:58;;;;;;;10.63;7.87;;;;;;;3.44;100.00;99249.16;5023358;28;20206;-79
2023/04/06 06:47:26;;;;;;;10.80;7.30;;;;;;;3.63;100.00;99253.78;5066916;28;20252;-79
2023/04/06 06:49:55;;;;;;;12.83;7.47;;;;;;;3.67;100.00;99248.41;5090445;28;20188;-79
2023/04/06 06:52:25;;;;;;;10.83;7.97;;;;;;;3.66;100.00;99251.03;5088250;28;20249;-79
2023/04/06 06:54:53;;;;;;;13.83;7.40;;;;;;;3.68;100.00;99255.34;5091403;28;20196;-79
2023/04/06 06:57:24;;;;;;;12.30;7.27;;;;;;;3.80;100.00;99245.34;5094379;28;20199;-79
2023/04/06 06:59:53;;;;;;;14.33;7.17;;;;;;;3.96;100.00;99251.78;5087501;28;20646;-79
2023/04/06 07:02:21;;;;;;;9.47;6.77;;;;;;;3.94;100.00;99246.56;5086794;28;20222;-79
2023/04/06 07:04:49;;;;;;;11.13;6.80;;;;;;;4.06;100.00;99240.03;5084591;28;20195;-79
2023/04/06 07:07:18;;;;;;;8.63;6.93;;;;;;;4.04;100.00;99244.47;5094094;28;20195;-79
2023/04/06 07:09:47;;;;;;;13.53;7.60;;;;;;;3.89;100.00;99243.25;5088567;28;20195;-80
2023/04/06 07:12:16;;;;;;;10.37;7.20;;;;;;;4.19;100.00;99245.69;5091372;28;20669;-79
2023/04/06 07:14:44;;;;;;;12.20;7.10;;;;;;;4.29;100.00;99237.41;5094080;28;20218;-79
2023/04/06 07:17:13;;;;;;;12.77;7.73;;;;;;;4.66;100.00;99241.28;5088359;28;20196;-79
2023/04/06 07:19:41;;;;;;;8.23;6.33;;;;;;;4.78;100.00;99238.16;5080704;28;20208;-79
2023/04/06 07:22:10;;;;;;;10.50;6.00;;;;;;;4.64;100.00;99237.84;5088675;28;20216;-80
2023/04/06 07:24:38;;;;;;;9.97;6.40;;;;;;;4.73;100.00;99241.88;5094261;28;20199;-79
2023/04/06 07:27:08;;;;;;;7.80;5.67;;;;;;;4.86;95.30;99240.50;5093892;28;20276;-79
2023/04/06 07:29:36;;;;;;;10.00;6.60;;;;;;;4.89;94.09;99251.72;5091704;28;20215;-79
2023/04/06 07:32:05;;;;;;;10.07;6.93;;;;;;;5.01;93.28;99244.25;5089534;28;20188;-79
2023/04/06 07:34:34;;;;;;;9.60;6.70;;;;;;;4.91;90.88;99246.41;5083176;28;20815;-79
2023/04/06 07:37:03;;;;;;;8.47;6.40;;;;;;;4.97;89.66;99247.94;5086130;28;20250;-79
2023/04/06 07:39:31;;;;;;;9.57;6.47;;;;;;;4.88;87.95;99241.28;5089935;28;20662;-79
2023/04/06 07:41:59;;;;;;;8.60;6.47;;;;;;;4.99;88.48;99248.72;5083875;28;20708;-79
2023/04/06 07:44:29;;;;;;;8.73;6.27;;;;;;;5.13;87.79;99243.78;5038060;28;20214;-79
2023/04/06 07:46:57;;;;;;;9.53;6.43;;;;;;;5.27;86.04;99248.47;5090975;28;20200;-79
2023/04/06 07:49:26;;;;;;;8.23;6.20;;;;;;;5.32;84.46;99236.88;5088839;28;20215;-79
2023/04/06 07:51:55;;;;;;;7.93;6.43;;;;;;;5.37;83.85;99242.78;5085833;28;20264;-79
2023/04/06 07:54:23;;;;;;;9.63;6.73;;;;;;;5.35;83.41;99244.63;5085181;28;20666;-79
2023/04/06 07:56:51;;;;;;;10.87;6.50;;;;;;;5.56;82.76;99242.84;5093280;28;20199;-79
2023/04/06 07:59:19;;;;;;;9.03;6.53;;;;;;;5.60;81.80;99241.81;5090494;28;20192;-79
2023/04/06 08:01:49;;;;;;;10.70;6.47;;;;;;;5.73;81.20;99250.03;5089533;28;20728;-80
2023/04/06 08:04:17;;;;;;;11.27;6.60;;;;;;;5.67;79.22;99245.88;5089440;28;20215;-79
2023/04/06 08:06:45;;;;;;;11.40;7.03;;;;;;;5.88;79.43;99248.50;5089345;28;20502;-79
2023/04/06 08:09:14;;;;;;;10.37;6.63;;;;;;;5.90;79.15;99254.56;5080427;28;20651;-79
2023/04/06 08:11:44;;;;;;;9.87;6.93;;;;;;;5.99;79.14;99248.94;5090036;28;20245;-79
2023/04/06 08:14:12;;;;;;;9.53;6.97;;;;;;;6.16;78.83;99249.03;5090348;28;20199;-80
2023/04/06 08:16:40;;;;;;;14.60;7.70;;;;;;;6.23;78.14;99244.34;5089549;28;20272;-80
2023/04/06 08:19:11;;;;;;;12.00;7.67;;;;;;;6.24;79.43;99240.81;5087885;28;20210;-79
2023/04/06 08:21:40;;;;;;;10.93;7.87;;;;;;;6.55;78.85;99250.78;5089648;28;20199;-80
2023/04/06 08:24:09;;;;;;;11.30;8.07;;;;;;;6.26;76.81;99249.47;5093357;28;20306;-80
2023/04/06 08:26:38;;;;;;;12.77;8.37;;;;;;;6.29;78.35;99241.47;5040302;28;20208;-80
2023/04/06 08:29:07;;;;;;;12.03;8.57;;;;;;;6.68;78.95;99251.09;5085811;28;20195;-80
2023/04/06 08:31:37;;;;;;;12.37;8.80;;;;;;;6.81;78.92;99250.41;5089200;28;20191;-80
2023/04/06 08:34:06;;;;;;;14.00;8.47;;;;;;;7.00;77.71;99245.13;5088811;28;20191;-80
2023/04/06 08:36:39;;;;;;;11.27;8.77;;;;;;;6.78;75.44;99247.09;5085572;28;20273;-80
2023/04/06 08:39:09;;;;;;;13.43;9.07;;;;;;;6.66;73.83;99260.81;5088370;28;20199;-80
2023/04/06 08:41:37;;;;;;;13.47;9.23;;;;;;;6.74;76.95;99245.50;5086370;28;20195;-79
2023/04/06 08:44:06;;;;;;;11.87;9.37;;;;;;;6.47;79.53;99248.53;5085397;28;20226;-79
2023/04/06 08:46:35;;;;;;;12.63;9.10;;;;;;;6.76;80.15;99243.69;5092871;28;20219;-80
2023/04/06 08:49:06;;;;;;;11.73;9.13;;;;;;;6.95;80.22;99252.41;5084865;28;20196;-80
2023/04/06 08:51:38;;;;;;;13.43;8.60;;;;;;;7.00;81.31;99247.75;5091537;28;20237;-80
2023/04/06 08:54:07;;;;;;;16.70;9.37;;;;;;;7.14;78.59;99245.34;5087804;28;20195;-80
2023/04/06 08:56:39;;;;;;;14.30;10.00;;;;;;;7.15;77.29;99243.56;5087688;28;20199;-79
2023/04/06 08:59:10;;;;;;;12.63;9.53;;;;;;;7.43;77.73;99238.63;5096842;28;20203;-80
2023/04/06 09:01:42;;;;;;;12.47;9.10;;;;;;;7.42;73.43;99246.59;5088473;28;20284;-80
2023/04/06 09:04:11;;;;;;;13.33;10.03;;;;;;;7.34;73.30;99243.50;5092595;28;20223;-80
2023/04/06 09:06:41;;;;;;;12.17;9.73;;;;;;;7.75;71.76;99230.88;5094888;28;20226;-81
2023/04/06 09:09:11;;;;;;;13.70;9.40;;;;;;;7.77;71.08;99234.28;5092335;28;20206;-80
2023/04/06 09:11:45;;;;;;;12.57;9.30;;;;;;;8.08;71.11;99233.53;5088287;28;20196;-80
2023/04/06 09:14:16;;;;;;;13.40;10.00;;;;;;;8.45;71.34;99235.09;5091518;28;20197;-80
2023/04/06 09:16:47;;;;;;;14.33;10.03;;;;;;;8.19;70.78;99236.44;5093854;28;20643;-79
2023/04/06 09:19:15;;;;;;;14.47;10.97;;;;;;;8.52;70.93;99227.72;5088359;28;20188;-79
2023/04/06 09:21:44;;;;;;;12.60;9.73;;;;;;;8.54;69.25;99229.31;5089544;28;20196;-80
2023/04/06 09:24:14;;;;;;;15.33;10.13;;;;;;;8.36;68.48;99226.81;5087078;28;20252;-80
2023/04/06 09:26:47;;;;;;;13.10;9.30;;;;;;;8.62;68.64;99223.63;5092534;28;20696;-79
2023/04/06 09:29:27;;;;;;;15.00;9.77;;;;;;;8.52;68.44;99225.91;5097877;28;20210;-80
2023/04/06 09:32:04;;;;;;;12.03;9.90;;;;;;;8.71;69.90;99225.75;5092795;28;20196;-79
2023/04/06 09:34:33;;;;;;;16.10;10.03;;;;;;;8.77;69.10;99214.00;5094026;28;20226;-80
2023/04/06 09:37:02;;;;;;;21.83;14.73;;;;;;;8.86;68.60;99222.25;5091839;28;20202;-79
2023/04/06 09:39:32;;;;;;;13.03;9.43;;;;;;;9.07;66.08;99219.31;5092978;28;20697;-80
2023/04/06 09:42:02;;;;;;;16.63;11.60;;;;;;;9.45;66.16;99222.41;5091681;28;20571;-80
2023/04/06 09:44:31;;;;;;;13.57;9.20;;;;;;;9.42;65.86;99217.31;5095803;28;20208;-80
2023/04/06 09:47:05;;;;;;;14.57;10.40;;;;;;;9.53;65.02;99220.19;5090873;28;20200;-80
2023/04/06 09:49:35;;;;;;;13.27;9.83;;;;;;;9.59;65.03;99209.25;5090107;28;20223;-80
2023/04/06 09:52:05;;;;;;;13.77;9.90;;;;;;;9.71;64.33;99205.88;5089441;28;20200;-80
2023/04/06 09:54:37;;;;;;;16.23;10.27;;;;;;;9.95;63.29;99208.84;5095823;28;20202;-80
2023/04/06 09:57:24;;;;;;;15.80;9.97;;;;;;;10.00;62.56;99201.47;5089983;28;20245;-80
2023/04/06 10:00:07;;;;;;;14.33;10.60;;;;;;;10.37;62.28;99204.53;5096152;28;20196;-80
2023/04/06 10:02:44;;;;;;;15.83;10.33;;;;;;;10.74;61.56;99205.72;5095785;28;20243;-80
2023/04/06 10:05:20;;;;;;;15.13;10.23;;;;;;;10.84;58.37;99205.97;5088327;28;20213;-80
2023/04/06 10:07:51;;;;;;;15.43;10.23;;;;;;;10.45;56.62;99202.25;5089349;28;20199;-80
2023/04/06 10:10:31;;;;;;;13.90;9.77;;;;;;;10.81;56.40;99192.94;5086409;28;20275;-80
2023/04/06 10:13:01;;;;;;;16.37;10.10;;;;;;;11.07;58.72;99196.50;5089174;28;20199;-81
2023/04/06 10:15:30;;;;;;;13.40;9.87;;;;;;;10.81;58.93;99198.22;5092531;28;20204;-80
2023/04/06 10:18:01;;;;;;;16.70;9.93;;;;;;;11.37;57.94;99191.84;5096963;28;20196;-81
2023/04/06 10:20:38;;;;;;;15.47;10.00;;;;;;;11.42;56.63;99189.75;5088456;28;20195;-80
2023/04/06 10:23:14;;;;;;;13.60;10.17;;;;;;;11.49;57.78;99186.69;5091015;28;20191;-80
2023/04/06 10:25:56;;;;;;;15.13;10.03;;;;;;;11.80;56.27;99183.69;5095133;28;20219;-80
2023/04/06 10:28:25;;;;;;;14.87;10.30;;;;;;;11.69;57.30;99184.38;5095137;28;20206;-80
2023/04/06 10:30:58;;;;;;;14.57;9.97;;;;;;;11.96;55.08;99186.09;5092184;28;20275;-80
2023/04/06 10:33:27;;;;;;;14.67;9.67;;;;;;;11.88;52.94;99193.78;5093285;28;20207;-80
2023/04/06 10:35:55;;;;;;;15.40;9.77;;;;;;;12.03;52.74;99190.03;5090666;28;20199;-80
2023/04/06 10:38:35;;;;;;;20.13;9.80;;;;;;;11.93;54.12;99187.16;5086114;28;20280;-80
2023/04/06 10:41:11;;;;;;;13.33;10.03;;;;;;;12.02;54.62;99183.03;5095066;28;20184;-80
2023/04/06 10:43:46;;;;;;;14.10;10.23;;;;;;;12.20;53.01;99170.28;5092207;28;20237;-80
2023/04/06 10:46:26;;;;;;;14.57;10.33;;;;;;;12.45;52.89;99177.34;5089659;28;20213;-80
2023/04/06 10:48:55;;;;;;;14.63;10.50;;;;;;;12.27;50.93;99183.03;5091979;28;20203;-80
2023/04/06 10:51:27;;;;;;;15.60;10.90;;;;;;;12.04;54.10;99181.97;5085358;28;20248;-80
2023/04/06 10:53:56;;;;;;;13.93;10.53;;;;;;;12.31;52.35;99186.31;5091774;28;20192;-80
2023/04/06 10:56:27;;;;;;;15.27;10.40;;;;;;;12.84;50.68;99173.66;5087992;28;20196;-81
2023/04/06 10:58:56;;;;;;;17.13;11.10;;;;;;;12.90;50.77;99173.19;5095197;28;20196;-80
2023/04/06 11:01:27;;;;;;;17.03;11.70;;;;;;;12.47;50.20;99176.28;5095129;28;20220;-80
2023/04/06 11:03:59;;;;;;;15.23;10.40;;;;;;;12.90;49.62;99167.84;5090553;28;20206;-81
2023/04/06 11:06:30;;;;;;;16.07;11.17;;;;;;;12.88;51.18;99167.13;5088833;28;20241;-81
2023/04/06 11:09:00;;;;;;;15.47;11.60;;;;;;;13.02;50.91;99161.63;5097300;28;20268;-81
2023/04/06 11:11:30;;;;;;;18.23;11.40;;;;;;;13.55;49.44;99158.63;5098638;28;20188;-81
2023/04/06 11:13:59;;;;;;;18.90;11.70;;;;;;;13.12;49.69;99172.44;5090466;28;20199;-80
2023/04/06 11:16:30;;;;;;;14.93;10.93;;;;;;;13.35;49.38;99153.00;5090664;28;20195;-81
2023/04/06 11:19:01;;;;;;;19.43;11.90;;;;;;;13.66;48.59;99154.16;5095037;28;20200;-80
2023/04/06 11:21:39;;;;;;;16.30;11.23;;;;;;;13.46;47.81;99157.50;5088882;28;20230;-80
2023/04/06 11:24:09;;;;;;;18.87;11.50;;;;;;;13.89;48.33;99149.72;5088251;28;20278;-80
2023/04/06 11:26:41;;;;;;;15.40;11.20;;;;;;;13.76;48.18;99154.31;5087029;28;20188;-81
2023/04/06 11:29:10;;;;;;;18.60;11.83;;;;;;;13.49;48.63;99151.09;5097509;28;20184;-81
2023/04/06 11:31:42;;;;;;;16.67;11.37;;;;;;;13.32;47.93;99144.41;5089579;28;20212;-81
2023/04/06 11:34:14;;;;;;;15.83;10.30;;;;;;;13.86;47.61;99136.66;5087906;28;20194;-81
2023/04/06 11:36:47;;;;;;;15.57;10.50;;;;;;;14.68;46.15;99134.59;5089316;28;20305;-81
2023/04/06 11:39:20;;;;;;;15.53;10.23;;;;;;;14.47;45.32;99125.63;5093394;28;20199;-81